Elkhorn, West Virginia
Current Conditions -  °F | °C
As of 12:52 PM on Wednesday 26 Nov 2014 (Local Time) from KBLF Reporting Station
Overcast Overcast  
Wind Chill: 32°   Ceiling: 300
Heat Index: 37°   Visibility: 10mi
Dew Point: 32°   Wind: 6mph
Humidity: 82%   Direction: 290°WNW
Pressure: 29.96"   Gusts: NA
Location:  37.39°N, 81.41°W
Report Text: KBLF 261752Z AUTO 29005KT 10SM BKN003 OVC010 03/00 A2996 RMK AO2 SNE26 SLP149 P0000 60030 T00280000 10028 20011 56012
Loading
Personal Weather Stations






























Interactive Weather Map New forecast layout! Learn more

10-Day Weather Forecast

Advertisements
Track Severe Weather on mobile